Startpagina
METAR-TAF:

METAR-TAF

Vliegvelden :

Laupheim, Duitsland

breedte: 48-13N, lengte: 009-55E, hoogte: 538 m

Actueel weer

Dit bericht is 46 minuten geleden gemaakt, om 20:20 UTC
Wind 20 kt uit het westzuidwesten met uitschieters tot 30 kt
Temperatuur 13°C
Vochtigheid 58%
Druk 1019 hPa
Zicht 10 km of meer
Gebroken wolken op 3900 ft

METAR: ETHL 232020Z 24020G30KT 9999 BKN039 13/05 Q1019 BLU

Tijdstip: 22:06 (21:06 UTC)


TAF: ontbreekt

Waarnemingen en weersverwachtingen van meer dan 4000 vliegvelden (METAR en TAF).

De beschikbare stations zijn de gele en rode punten op de kaart.

Ga met uw muis naar het station om de naam te zien.

Klik dan om waarnemingen en weersverwachtingen te zien.

kaart wijzigen: klik op de groene knoppen met een zwart kruis om in te zoomen, op de groene knop met een streepje om uit te zoomen of op de groene pijlen voor aangrenzende kaarten.


METAR-TAF: